sensor_id;sensor_type;location;lat;lon;timestamp;pressure;altitude;pressure_sealevel;temperature;humidity
29877;BME280;16750;49.002;9.204;2022-07-24T00:01:17;99590.09;;;20.88;100.00
29877;BME280;16750;49.002;9.204;2022-07-24T00:03:42;99628.38;;;21.07;100.00
29877;BME280;16750;49.002;9.204;2022-07-24T00:06:08;99601.72;;;21.00;100.00
29877;BME280;16750;49.002;9.204;2022-07-24T00:08:33;99628.50;;;21.15;100.00
29877;BME280;16750;49.002;9.204;2022-07-24T00:10:59;99616.00;;;21.08;100.00
29877;BME280;16750;49.002;9.204;2022-07-24T00:13:24;99626.78;;;21.20;100.00
29877;BME280;16750;49.002;9.204;2022-07-24T00:15:49;99631.28;;;21.26;100.00
29877;BME280;16750;49.002;9.204;2022-07-24T00:18:15;99644.63;;;21.32;100.00
29877;BME280;16750;49.002;9.204;2022-07-24T00:20:40;99642.03;;;21.36;100.00
29877;BME280;16750;49.002;9.204;2022-07-24T00:23:06;99627.00;;;21.39;100.00
29877;BME280;16750;49.002;9.204;2022-07-24T00:25:31;99606.56;;;21.30;100.00
29877;BME280;16750;49.002;9.204;2022-07-24T00:27:57;99622.63;;;21.41;100.00
29877;BME280;16750;49.002;9.204;2022-07-24T00:30:23;99629.75;;;21.43;100.00
29877;BME280;16750;49.002;9.204;2022-07-24T00:32:48;99591.44;;;21.24;100.00
29877;BME280;16750;49.002;9.204;2022-07-24T00:35:14;99594.13;;;21.27;100.00
29877;BME280;16750;49.002;9.204;2022-07-24T00:37:39;99626.13;;;21.38;100.00
29877;BME280;16750;49.002;9.204;2022-07-24T00:40:05;99624.22;;;21.28;100.00
29877;BME280;16750;49.002;9.204;2022-07-24T00:42:30;99630.41;;;21.25;100.00
29877;BME280;16750;49.002;9.204;2022-07-24T00:44:56;99602.75;;;21.09;100.00
29877;BME280;16750;49.002;9.204;2022-07-24T00:47:21;99628.56;;;21.21;100.00
29877;BME280;16750;49.002;9.204;2022-07-24T00:49:47;99625.00;;;21.19;100.00
29877;BME280;16750;49.002;9.204;2022-07-24T00:52:12;99627.69;;;21.22;100.00
29877;BME280;16750;49.002;9.204;2022-07-24T00:54:37;99619.78;;;21.25;100.00
29877;BME280;16750;49.002;9.204;2022-07-24T00:57:03;99595.66;;;21.08;100.00
29877;BME280;16750;49.002;9.204;2022-07-24T00:59:29;99605.41;;;21.09;100.00
29877;BME280;16750;49.002;9.204;2022-07-24T01:01:54;99625.75;;;21.10;100.00
29877;BME280;16750;49.002;9.204;2022-07-24T01:04:20;99616.75;;;20.96;100.00
29877;BME280;16750;49.002;9.204;2022-07-24T01:06:46;99621.94;;;20.88;100.00
29877;BME280;16750;49.002;9.204;2022-07-24T01:09:12;99597.81;;;20.73;100.00
29877;BME280;16750;49.002;9.204;2022-07-24T01:11:38;99621.91;;;20.87;100.00
29877;BME280;16750;49.002;9.204;2022-07-24T01:14:05;99627.13;;;20.81;100.00
29877;BME280;16750;49.002;9.204;2022-07-24T01:16:32;99612.88;;;20.74;100.00
29877;BME280;16750;49.002;9.204;2022-07-24T01:18:58;99609.25;;;20.67;100.00
29877;BME280;16750;49.002;9.204;2022-07-24T01:21:23;99626.09;;;20.69;100.00
29877;BME280;16750;49.002;9.204;2022-07-24T01:23:50;99618.94;;;20.64;100.00
29877;BME280;16750;49.002;9.204;2022-07-24T01:26:16;99615.25;;;20.57;100.00
29877;BME280;16750;49.002;9.204;2022-07-24T01:28:42;99610.66;;;20.45;100.00
29877;BME280;16750;49.002;9.204;2022-07-24T01:31:07;99619.44;;;20.44;100.00
29877;BME280;16750;49.002;9.204;2022-07-24T01:33:33;99584.63;;;20.21;100.00
29877;BME280;16750;49.002;9.204;2022-07-24T01:35:59;99602.47;;;20.30;100.00
29877;BME280;16750;49.002;9.204;2022-07-24T01:38:24;99606.78;;;20.25;100.00
29877;BME280;16750;49.002;9.204;2022-07-24T01:40:50;99611.97;;;20.19;100.00
29877;BME280;16750;49.002;9.204;2022-07-24T01:43:15;99600.22;;;20.01;100.00
29877;BME280;16750;49.002;9.204;2022-07-24T01:45:40;99594.66;;;19.87;100.00
29877;BME280;16750;49.002;9.204;2022-07-24T01:48:06;99586.50;;;19.75;100.00
29877;BME280;16750;49.002;9.204;2022-07-24T01:50:31;99615.81;;;19.86;100.00
29877;BME280;16750;49.002;9.204;2022-07-24T01:52:57;99588.91;;;19.64;100.00
29877;BME280;16750;49.002;9.204;2022-07-24T01:55:23;99612.03;;;19.71;100.00
29877;BME280;16750;49.002;9.204;2022-07-24T01:57:49;99613.81;;;19.72;100.00
29877;BME280;16750;49.002;9.204;2022-07-24T02:00:16;99602.88;;;19.57;100.00
29877;BME280;16750;49.002;9.204;2022-07-24T02:02:43;99602.03;;;19.58;100.00
29877;BME280;16750;49.002;9.204;2022-07-24T02:05:09;99608.25;;;19.60;100.00
29877;BME280;16750;49.002;9.204;2022-07-24T02:07:35;99611.63;;;19.53;100.00
29877;BME280;16750;49.002;9.204;2022-07-24T02:10:01;99602.72;;;19.48;100.00
29877;BME280;16750;49.002;9.204;2022-07-24T02:12:26;99607.94;;;19.45;100.00
29877;BME280;16750;49.002;9.204;2022-07-24T02:14:52;99593.56;;;19.32;100.00
29877;BME280;16750;49.002;9.204;2022-07-24T02:17:17;99611.31;;;19.36;100.00
29877;BME280;16750;49.002;9.204;2022-07-24T02:19:42;99596.06;;;19.23;100.00
29877;BME280;16750;49.002;9.204;2022-07-24T02:22:08;99604.78;;;19.20;100.00
29877;BME280;16750;49.002;9.204;2022-07-24T02:24:33;99615.41;;;19.22;100.00
29877;BME280;16750;49.002;9.204;2022-07-24T02:26:59;99618.00;;;19.19;100.00
29877;BME280;16750;49.002;9.204;2022-07-24T02:29:24;99585.84;;;18.99;100.00
29877;BME280;16750;49.002;9.204;2022-07-24T02:31:49;99604.63;;;19.11;100.00
29877;BME280;16750;49.002;9.204;2022-07-24T02:34:15;99599.28;;;19.09;100.00
29877;BME280;16750;49.002;9.204;2022-07-24T02:36:40;99611.69;;;19.12;100.00
29877;BME280;16750;49.002;9.204;2022-07-24T02:39:05;99587.44;;;18.90;100.00
29877;BME280;16750;49.002;9.204;2022-07-24T02:41:31;99615.78;;;18.96;100.00
29877;BME280;16750;49.002;9.204;2022-07-24T02:43:56;99588.78;;;18.73;100.00
29877;BME280;16750;49.002;9.204;2022-07-24T02:46:21;99612.94;;;18.88;100.00
29877;BME280;16750;49.002;9.204;2022-07-24T02:48:47;99593.28;;;18.77;100.00
29877;BME280;16750;49.002;9.204;2022-07-24T02:51:12;99611.09;;;18.84;100.00
29877;BME280;16750;49.002;9.204;2022-07-24T02:53:38;99607.28;;;18.73;100.00
29877;BME280;16750;49.002;9.204;2022-07-24T02:56:03;99557.16;;;18.38;100.00
29877;BME280;16750;49.002;9.204;2022-07-24T02:58:29;99618.53;;;18.64;100.00
29877;BME280;16750;49.002;9.204;2022-07-24T03:00:54;99620.19;;;18.59;100.00
29877;BME280;16750;49.002;9.204;2022-07-24T03:03:20;99598.81;;;18.50;100.00
29877;BME280;16750;49.002;9.204;2022-07-24T03:05:45;99608.59;;;18.52;100.00
29877;BME280;16750;49.002;9.204;2022-07-24T03:08:11;99604.22;;;18.56;100.00
29877;BME280;16750;49.002;9.204;2022-07-24T03:10:36;99617.50;;;18.58;100.00
29877;BME280;16750;49.002;9.204;2022-07-24T03:13:02;99603.84;;;18.38;100.00
29877;BME280;16750;49.002;9.204;2022-07-24T03:15:27;99624.16;;;18.42;100.00
29877;BME280;16750;49.002;9.204;2022-07-24T03:17:55;99614.56;;;18.45;100.00
29877;BME280;16750;49.002;9.204;2022-07-24T03:20:22;99613.69;;;18.45;100.00
29877;BME280;16750;49.002;9.204;2022-07-24T03:22:48;99618.88;;;18.42;100.00
29877;BME280;16750;49.002;9.204;2022-07-24T03:25:14;99608.97;;;18.31;100.00
29877;BME280;16750;49.002;9.204;2022-07-24T03:27:40;99616.91;;;18.33;100.00
29877;BME280;16750;49.002;9.204;2022-07-24T03:30:08;99615.13;;;18.32;100.00
29877;BME280;16750;49.002;9.204;2022-07-24T03:32:34;99619.50;;;18.30;100.00
29877;BME280;16750;49.002;9.204;2022-07-24T03:34:59;99571.84;;;17.92;100.00
29877;BME280;16750;49.002;9.204;2022-07-24T03:37:25;99613.81;;;18.14;100.00
29877;BME280;16750;49.002;9.204;2022-07-24T03:39:50;99587.03;;;17.99;100.00
29877;BME280;16750;49.002;9.204;2022-07-24T03:42:16;99580.84;;;17.99;100.00
29877;BME280;16750;49.002;9.204;2022-07-24T03:44:41;99613.84;;;18.16;100.00
29877;BME280;16750;49.002;9.204;2022-07-24T03:47:06;99596.88;;;18.06;100.00
29877;BME280;16750;49.002;9.204;2022-07-24T03:49:32;99616.66;;;18.22;100.00
29877;BME280;16750;49.002;9.204;2022-07-24T03:51:57;99594.78;;;17.93;100.00
29877;BME280;16750;49.002;9.204;2022-07-24T03:54:23;99606.22;;;17.93;100.00
29877;BME280;16750;49.002;9.204;2022-07-24T03:56:50;99635.59;;;18.06;100.00
29877;BME280;16750;49.002;9.204;2022-07-24T03:59:15;99628.72;;;18.11;100.00
29877;BME280;16750;49.002;9.204;2022-07-24T04:01:41;99635.81;;;18.13;100.00
29877;BME280;16750;49.002;9.204;2022-07-24T04:04:06;99620.47;;;18.00;100.00
29877;BME280;16750;49.002;9.204;2022-07-24T04:06:32;99630.63;;;18.18;100.00
29877;BME280;16750;49.002;9.204;2022-07-24T04:08:59;99610.00;;;18.03;100.00
29877;BME280;16750;49.002;9.204;2022-07-24T04:11:25;99633.13;;;18.12;100.00
29877;BME280;16750;49.002;9.204;2022-07-24T04:13:50;99631.53;;;18.19;100.00
29877;BME280;16750;49.002;9.204;2022-07-24T04:16:16;99636.06;;;18.24;100.00
29877;BME280;16750;49.002;9.204;2022-07-24T04:18:41;99646.75;;;18.29;100.00
29877;BME280;16750;49.002;9.204;2022-07-24T04:21:07;99649.41;;;18.29;100.00
29877;BME280;16750;49.002;9.204;2022-07-24T04:23:33;99644.06;;;18.26;100.00
29877;BME280;16750;49.002;9.204;2022-07-24T04:25:58;99614.63;;;18.12;100.00
29877;BME280;16750;49.002;9.204;2022-07-24T04:28:24;99653.28;;;18.43;100.00
29877;BME280;16750;49.002;9.204;2022-07-24T04:30:49;99658.66;;;18.48;100.00
29877;BME280;16750;49.002;9.204;2022-07-24T04:33:14;99632.97;;;18.41;100.00
29877;BME280;16750;49.002;9.204;2022-07-24T04:35:40;99660.69;;;18.58;100.00
29877;BME280;16750;49.002;9.204;2022-07-24T04:38:05;99635.91;;;18.53;100.00
29877;BME280;16750;49.002;9.204;2022-07-24T04:40:31;99637.75;;;18.57;100.00
29877;BME280;16750;49.002;9.204;2022-07-24T04:42:56;99645.88;;;18.65;100.00
29877;BME280;16750;49.002;9.204;2022-07-24T04:45:22;99658.47;;;18.76;100.00
29877;BME280;16750;49.002;9.204;2022-07-24T04:47:47;99667.59;;;18.88;100.00
29877;BME280;16750;49.002;9.204;2022-07-24T04:50:13;99634.56;;;18.72;100.00
29877;BME280;16750;49.002;9.204;2022-07-24T04:52:38;99655.38;;;18.93;100.00
29877;BME280;16750;49.002;9.204;2022-07-24T04:55:04;99605.72;;;18.80;100.00
29877;BME280;16750;49.002;9.204;2022-07-24T04:57:30;99657.56;;;19.12;100.00
29877;BME280;16750;49.002;9.204;2022-07-24T04:59:55;99667.63;;;19.29;100.00
29877;BME280;16750;49.002;9.204;2022-07-24T05:02:20;99677.56;;;20.30;100.00
29877;BME280;16750;49.002;9.204;2022-07-24T05:04:46;99675.72;;;22.14;100.00
29877;BME280;16750;49.002;9.204;2022-07-24T05:07:11;99684.69;;;23.40;100.00
29877;BME280;16750;49.002;9.204;2022-07-24T05:09:36;99685.63;;;23.56;100.00
29877;BME280;16750;49.002;9.204;2022-07-24T05:12:02;99663.69;;;22.54;100.00
29877;BME280;16750;49.002;9.204;2022-07-24T05:14:28;99672.75;;;21.83;100.00
29877;BME280;16750;49.002;9.204;2022-07-24T05:16:53;99674.63;;;21.25;100.00
29877;BME280;16750;49.002;9.204;2022-07-24T05:19:18;99688.31;;;20.91;100.00
29877;BME280;16750;49.002;9.204;2022-07-24T05:21:44;99681.03;;;20.78;100.00
29877;BME280;16750;49.002;9.204;2022-07-24T05:24:09;99654.09;;;20.53;100.00
29877;BME280;16750;49.002;9.204;2022-07-24T05:26:34;99679.91;;;20.62;100.00
29877;BME280;16750;49.002;9.204;2022-07-24T05:29:01;99662.97;;;20.55;100.00
29877;BME280;16750;49.002;9.204;2022-07-24T05:31:27;99676.50;;;20.71;100.00
29877;BME280;16750;49.002;9.204;2022-07-24T05:33:53;99681.97;;;20.83;100.00
29877;BME280;16750;49.002;9.204;2022-07-24T05:36:19;99670.63;;;20.90;100.00
29877;BME280;16750;49.002;9.204;2022-07-24T05:38:44;99672.50;;;20.99;100.00
29877;BME280;16750;49.002;9.204;2022-07-24T05:41:11;99676.13;;;21.06;100.00
29877;BME280;16750;49.002;9.204;2022-07-24T05:43:36;99677.09;;;21.11;100.00
29877;BME280;16750;49.002;9.204;2022-07-24T05:46:04;99683.34;;;21.16;100.00
29877;BME280;16750;49.002;9.204;2022-07-24T05:48:29;99647.84;;;21.08;100.00
29877;BME280;16750;49.002;9.204;2022-07-24T05:50:55;99676.56;;;21.36;100.00
29877;BME280;16750;49.002;9.204;2022-07-24T05:53:20;99668.75;;;21.47;100.00
29877;BME280;16750;49.002;9.204;2022-07-24T05:55:46;99676.94;;;21.64;100.00
29877;BME280;16750;49.002;9.204;2022-07-24T05:58:11;99675.28;;;21.75;100.00
29877;BME280;16750;49.002;9.204;2022-07-24T06:00:37;99657.59;;;21.77;100.00
29877;BME280;16750;49.002;9.204;2022-07-24T06:03:02;99641.69;;;21.79;100.00
29877;BME280;16750;49.002;9.204;2022-07-24T06:05:27;99663.16;;;22.01;100.00
29877;BME280;16750;49.002;9.204;2022-07-24T06:07:53;99679.25;;;22.13;100.00
29877;BME280;16750;49.002;9.204;2022-07-24T06:10:18;99654.25;;;21.95;100.00
29877;BME280;16750;49.002;9.204;2022-07-24T06:12:43;99677.44;;;22.10;100.00
29877;BME280;16750;49.002;9.204;2022-07-24T06:15:09;99678.44;;;22.20;100.00
29877;BME280;16750;49.002;9.204;2022-07-24T06:17:34;99686.56;;;22.35;100.00
29877;BME280;16750;49.002;9.204;2022-07-24T06:20:00;99679.66;;;22.54;100.00
29877;BME280;16750;49.002;9.204;2022-07-24T06:22:25;99678.81;;;22.63;100.00
29877;BME280;16750;49.002;9.204;2022-07-24T06:24:51;99663.72;;;22.61;100.00
29877;BME280;16750;49.002;9.204;2022-07-24T06:27:16;99687.00;;;22.86;100.00
29877;BME280;16750;49.002;9.204;2022-07-24T06:29:41;99674.59;;;22.91;100.00
29877;BME280;16750;49.002;9.204;2022-07-24T06:32:07;99684.47;;;23.06;100.00
29877;BME280;16750;49.002;9.204;2022-07-24T06:34:32;99670.31;;;23.15;100.00
29877;BME280;16750;49.002;9.204;2022-07-24T06:36:57;99682.00;;;23.34;100.00
29877;BME280;16750;49.002;9.204;2022-07-24T06:39:23;99667.81;;;23.43;100.00
29877;BME280;16750;49.002;9.204;2022-07-24T06:41:48;99681.25;;;23.72;100.00
29877;BME280;16750;49.002;9.204;2022-07-24T06:44:23;99659.03;;;23.74;100.00
29877;BME280;16750;49.002;9.204;2022-07-24T06:46:49;99664.47;;;23.94;100.00
29877;BME280;16750;49.002;9.204;2022-07-24T06:49:14;99680.50;;;24.17;100.00
29877;BME280;16750;49.002;9.204;2022-07-24T06:51:40;99666.31;;;24.29;100.00
29877;BME280;16750;49.002;9.204;2022-07-24T06:54:05;99645.84;;;24.24;100.00
29877;BME280;16750;49.002;9.204;2022-07-24T06:56:31;99615.59;;;24.14;100.00
29877;BME280;16750;49.002;9.204;2022-07-24T06:58:56;99663.69;;;24.52;100.00
29877;BME280;16750;49.002;9.204;2022-07-24T07:01:23;99678.78;;;24.75;100.00
29877;BME280;16750;49.002;9.204;2022-07-24T07:03:54;99680.56;;;24.82;100.00
29877;BME280;16750;49.002;9.204;2022-07-24T07:06:20;99685.00;;;24.94;100.00
29877;BME280;16750;49.002;9.204;2022-07-24T07:08:46;99683.19;;;25.07;100.00
29877;BME280;16750;49.002;9.204;2022-07-24T07:11:11;99664.47;;;25.14;100.00
29877;BME280;16750;49.002;9.204;2022-07-24T07:13:36;99673.38;;;25.29;100.00
29877;BME280;16750;49.002;9.204;2022-07-24T07:16:02;99685.81;;;25.47;100.00
29877;BME280;16750;49.002;9.204;2022-07-24T07:18:27;99672.41;;;25.50;100.00
29877;BME280;16750;49.002;9.204;2022-07-24T07:20:53;99674.97;;;25.73;97.15
29877;BME280;16750;49.002;9.204;2022-07-24T07:23:22;99675.78;;;25.89;91.96
29877;BME280;16750;49.002;9.204;2022-07-24T07:25:48;99668.69;;;25.89;92.38
29877;BME280;16750;49.002;9.204;2022-07-24T07:28:13;99682.84;;;26.05;89.31
29877;BME280;16750;49.002;9.204;2022-07-24T07:30:39;99674.00;;;25.94;85.78
29877;BME280;16750;49.002;9.204;2022-07-24T07:33:04;99648.22;;;25.71;84.43
29877;BME280;16750;49.002;9.204;2022-07-24T07:35:29;99688.28;;;25.93;83.22
29877;BME280;16750;49.002;9.204;2022-07-24T07:37:55;99672.19;;;25.96;80.53
29877;BME280;16750;49.002;9.204;2022-07-24T07:40:20;99687.25;;;26.15;79.97
29877;BME280;16750;49.002;9.204;2022-07-24T07:42:46;99661.47;;;26.05;78.34
29877;BME280;16750;49.002;9.204;2022-07-24T07:45:11;99690.63;;;26.42;77.62
29877;BME280;16750;49.002;9.204;2022-07-24T07:47:37;99691.41;;;26.61;75.41
29877;BME280;16750;49.002;9.204;2022-07-24T07:50:03;99681.53;;;26.69;72.08
29877;BME280;16750;49.002;9.204;2022-07-24T07:52:29;99685.91;;;26.80;71.04
29877;BME280;16750;49.002;9.204;2022-07-24T07:54:54;99681.34;;;26.88;68.08
29877;BME280;16750;49.002;9.204;2022-07-24T07:57:19;99656.31;;;26.90;68.26
29877;BME280;16750;49.002;9.204;2022-07-24T07:59:45;99654.56;;;26.86;67.58
29877;BME280;16750;49.002;9.204;2022-07-24T08:02:10;99674.81;;;27.16;67.56
29877;BME280;16750;49.002;9.204;2022-07-24T08:04:35;99678.19;;;27.37;65.28
29877;BME280;16750;49.002;9.204;2022-07-24T08:07:01;99675.22;;;27.60;65.00
29877;BME280;16750;49.002;9.204;2022-07-24T08:09:26;99681.28;;;27.74;63.13
29877;BME280;16750;49.002;9.204;2022-07-24T08:11:52;99678.47;;;27.87;62.17
29877;BME280;16750;49.002;9.204;2022-07-24T08:14:17;99676.66;;;27.89;60.76
29877;BME280;16750;49.002;9.204;2022-07-24T08:16:42;99678.25;;;28.02;60.67
29877;BME280;16750;49.002;9.204;2022-07-24T08:19:08;99659.47;;;28.01;59.86
29877;BME280;16750;49.002;9.204;2022-07-24T08:21:33;99668.03;;;28.26;59.96
29877;BME280;16750;49.002;9.204;2022-07-24T08:23:58;99666.94;;;28.39;59.68
29877;BME280;16750;49.002;9.204;2022-07-24T08:26:24;99665.03;;;28.47;59.50
29877;BME280;16750;49.002;9.204;2022-07-24T08:28:49;99664.19;;;28.44;57.60
29877;BME280;16750;49.002;9.204;2022-07-24T08:31:15;99665.00;;;28.50;57.67
29877;BME280;16750;49.002;9.204;2022-07-24T08:33:40;99627.19;;;28.07;57.80
29877;BME280;16750;49.002;9.204;2022-07-24T08:36:06;99653.09;;;28.09;57.93
29877;BME280;16750;49.002;9.204;2022-07-24T08:38:31;99663.59;;;28.25;57.89
29877;BME280;16750;49.002;9.204;2022-07-24T08:40:56;99661.66;;;28.34;57.00
29877;BME280;16750;49.002;9.204;2022-07-24T08:43:22;99639.59;;;28.14;56.04
29877;BME280;16750;49.002;9.204;2022-07-24T08:45:49;99660.75;;;28.34;55.57
29877;BME280;16750;49.002;9.204;2022-07-24T08:48:15;99652.59;;;28.40;55.23
29877;BME280;16750;49.002;9.204;2022-07-24T08:50:42;99662.53;;;28.35;54.47
29877;BME280;16750;49.002;9.204;2022-07-24T08:53:08;99653.38;;;28.50;55.34
29877;BME280;16750;49.002;9.204;2022-07-24T08:55:34;99652.06;;;28.74;55.08
29877;BME280;16750;49.002;9.204;2022-07-24T08:58:04;99663.50;;;28.85;54.82
29877;BME280;16750;49.002;9.204;2022-07-24T09:00:31;99649.81;;;28.99;52.87
29877;BME280;16750;49.002;9.204;2022-07-24T09:02:57;99662.81;;;29.24;53.08
29877;BME280;16750;49.002;9.204;2022-07-24T09:05:23;99649.84;;;29.44;52.19
29877;BME280;16750;49.002;9.204;2022-07-24T09:07:49;99646.78;;;29.61;51.88
29877;BME280;16750;49.002;9.204;2022-07-24T09:10:16;99658.09;;;29.78;51.29
29877;BME280;16750;49.002;9.204;2022-07-24T09:12:44;99650.72;;;29.87;50.52
29877;BME280;16750;49.002;9.204;2022-07-24T09:15:22;99660.09;;;30.09;50.39
29877;BME280;16750;49.002;9.204;2022-07-24T09:17:58;99655.94;;;29.94;50.59
29877;BME280;16750;49.002;9.204;2022-07-24T09:20:26;99645.44;;;29.84;50.26
29877;BME280;16750;49.002;9.204;2022-07-24T09:22:53;99640.69;;;29.95;50.51
29877;BME280;16750;49.002;9.204;2022-07-24T09:25:23;99662.50;;;30.22;50.05
29877;BME280;16750;49.002;9.204;2022-07-24T09:33:17;99653.09;;;30.75;48.29
29877;BME280;16750;49.002;9.204;2022-07-24T09:35:49;99647.53;;;30.82;47.57
29877;BME280;16750;49.002;9.204;2022-07-24T09:38:20;99651.31;;;30.76;46.74
29877;BME280;16750;49.002;9.204;2022-07-24T09:40:51;99652.22;;;30.75;46.90
29877;BME280;16750;49.002;9.204;2022-07-24T09:43:20;99652.41;;;31.03;47.12
29877;BME280;16750;49.002;9.204;2022-07-24T09:46:07;99650.72;;;30.99;46.17
29877;BME280;16750;49.002;9.204;2022-07-24T09:48:52;99646.44;;;30.90;46.32
29877;BME280;16750;49.002;9.204;2022-07-24T09:51:23;99654.69;;;30.84;46.00
29877;BME280;16750;49.002;9.204;2022-07-24T09:53:54;99650.97;;;30.88;44.80
29877;BME280;16750;49.002;9.204;2022-07-24T09:56:20;99637.66;;;30.82;44.62
29877;BME280;16750;49.002;9.204;2022-07-24T10:01:13;99641.66;;;31.02;44.32
29877;BME280;16750;49.002;9.204;2022-07-24T10:03:41;99637.66;;;31.15;44.04
29877;BME280;16750;49.002;9.204;2022-07-24T10:06:10;99642.31;;;31.41;44.00
29877;BME280;16750;49.002;9.204;2022-07-24T10:08:37;99618.91;;;31.42;42.80
29877;BME280;16750;49.002;9.204;2022-07-24T10:11:03;99635.44;;;31.62;42.35
29877;BME280;16750;49.002;9.204;2022-07-24T10:13:29;99638.78;;;31.70;42.18
29877;BME280;16750;49.002;9.204;2022-07-24T10:16:22;99608.91;;;31.76;41.19
29877;BME280;16750;49.002;9.204;2022-07-24T10:19:06;99634.28;;;32.01;40.23
29877;BME280;16750;49.002;9.204;2022-07-24T10:21:37;99624.84;;;31.54;40.87
29877;BME280;16750;49.002;9.204;2022-07-24T10:26:42;99615.75;;;31.58;42.80
29877;BME280;16750;49.002;9.204;2022-07-24T10:29:10;99623.59;;;31.96;42.13
29877;BME280;16750;49.002;9.204;2022-07-24T10:31:44;99620.94;;;32.23;41.71
29877;BME280;16750;49.002;9.204;2022-07-24T10:37:13;99611.63;;;32.60;41.12
29877;BME280;16750;49.002;9.204;2022-07-24T10:42:19;99596.03;;;32.68;39.72
29877;BME280;16750;49.002;9.204;2022-07-24T10:44:44;99614.06;;;32.92;39.16
29877;BME280;16750;49.002;9.204;2022-07-24T10:47:30;99556.69;;;32.59;39.89
29877;BME280;16750;49.002;9.204;2022-07-24T10:49:57;99581.97;;;32.83;38.63
29877;BME280;16750;49.002;9.204;2022-07-24T10:52:30;99601.06;;;32.79;39.54
29877;BME280;16750;49.002;9.204;2022-07-24T10:57:54;99600.06;;;32.56;39.62
29877;BME280;16750;49.002;9.204;2022-07-24T11:00:24;99592.06;;;32.51;40.54
29877;BME280;16750;49.002;9.204;2022-07-24T11:03:02;99597.19;;;32.86;40.13
29877;BME280;16750;49.002;9.204;2022-07-24T11:05:30;99597.84;;;33.17;39.55
29877;BME280;16750;49.002;9.204;2022-07-24T11:18:39;99575.00;;;32.76;38.98
29877;BME280;16750;49.002;9.204;2022-07-24T11:21:06;99575.47;;;33.14;38.20
29877;BME280;16750;49.002;9.204;2022-07-24T11:23:31;99568.72;;;33.71;37.70
29877;BME280;16750;49.002;9.204;2022-07-24T11:29:11;99573.50;;;34.53;36.14
29877;BME280;16750;49.002;9.204;2022-07-24T11:31:37;99579.19;;;34.69;36.12
29877;BME280;16750;49.002;9.204;2022-07-24T11:34:03;99579.28;;;35.07;35.66
29877;BME280;16750;49.002;9.204;2022-07-24T11:36:29;99579.94;;;34.91;34.95
29877;BME280;16750;49.002;9.204;2022-07-24T11:38:54;99572.66;;;34.08;36.13
29877;BME280;16750;49.002;9.204;2022-07-24T11:41:20;99575.13;;;34.36;36.10
29877;BME280;16750;49.002;9.204;2022-07-24T11:43:53;99570.81;;;34.94;33.53
29877;BME280;16750;49.002;9.204;2022-07-24T11:46:38;99569.34;;;35.06;34.51
29877;BME280;16750;49.002;9.204;2022-07-24T11:49:09;99569.19;;;34.90;34.22
29877;BME280;16750;49.002;9.204;2022-07-24T11:51:46;99551.97;;;35.10;34.61
29877;BME280;16750;49.002;9.204;2022-07-24T11:54:15;99561.38;;;35.23;33.55
29877;BME280;16750;49.002;9.204;2022-07-24T11:56:44;99558.94;;;34.76;34.82
29877;BME280;16750;49.002;9.204;2022-07-24T11:59:31;99545.78;;;34.87;35.39
29877;BME280;16750;49.002;9.204;2022-07-24T12:02:10;99541.34;;;35.05;34.23
29877;BME280;16750;49.002;9.204;2022-07-24T12:04:38;99536.94;;;35.03;34.47
29877;BME280;16750;49.002;9.204;2022-07-24T12:07:08;99538.16;;;34.13;34.55
29877;BME280;16750;49.002;9.204;2022-07-24T12:09:50;99538.78;;;34.20;35.92
29877;BME280;16750;49.002;9.204;2022-07-24T12:17:28;99526.78;;;33.82;35.93
29877;BME280;16750;49.002;9.204;2022-07-24T12:19:55;99496.44;;;33.73;36.97
29877;BME280;16750;49.002;9.204;2022-07-24T12:22:22;99470.31;;;33.72;37.70
29877;BME280;16750;49.002;9.204;2022-07-24T12:24:48;99501.03;;;33.71;36.42
29877;BME280;16750;49.002;9.204;2022-07-24T12:27:32;99515.91;;;33.61;37.99
29877;BME280;16750;49.002;9.204;2022-07-24T12:29:57;99515.19;;;33.10;37.05
29877;BME280;16750;49.002;9.204;2022-07-24T12:32:22;99507.59;;;32.95;38.56
29877;BME280;16750;49.002;9.204;2022-07-24T12:34:48;99490.50;;;32.94;38.09
29877;BME280;16750;49.002;9.204;2022-07-24T12:37:15;99494.31;;;33.14;38.44
29877;BME280;16750;49.002;9.204;2022-07-24T12:39:51;99499.06;;;33.31;37.26
29877;BME280;16750;49.002;9.204;2022-07-24T12:42:27;99473.53;;;33.14;36.57
29877;BME280;16750;49.002;9.204;2022-07-24T12:44:53;99481.13;;;33.28;37.78
29877;BME280;16750;49.002;9.204;2022-07-24T12:47:18;99493.75;;;33.28;37.57
29877;BME280;16750;49.002;9.204;2022-07-24T12:49:45;99491.44;;;32.93;37.87
29877;BME280;16750;49.002;9.204;2022-07-24T12:52:23;99479.59;;;33.21;38.79
29877;BME280;16750;49.002;9.204;2022-07-24T12:54:50;99473.63;;;33.57;37.21
29877;BME280;16750;49.002;9.204;2022-07-24T12:57:20;99476.41;;;33.77;36.66
29877;BME280;16750;49.002;9.204;2022-07-24T12:59:50;99469.84;;;34.05;36.58
29877;BME280;16750;49.002;9.204;2022-07-24T13:02:16;99470.81;;;34.25;35.58
29877;BME280;16750;49.002;9.204;2022-07-24T13:04:42;99476.38;;;34.22;36.22
29877;BME280;16750;49.002;9.204;2022-07-24T13:07:09;99464.91;;;34.35;36.39
29877;BME280;16750;49.002;9.204;2022-07-24T13:09:35;99460.66;;;34.50;35.75
29877;BME280;16750;49.002;9.204;2022-07-24T13:12:00;99466.63;;;34.59;35.13
29877;BME280;16750;49.002;9.204;2022-07-24T13:14:26;99447.41;;;34.63;35.56
29877;BME280;16750;49.002;9.204;2022-07-24T13:16:54;99456.88;;;34.75;34.70
29877;BME280;16750;49.002;9.204;2022-07-24T13:19:20;99460.16;;;34.82;34.55
29877;BME280;16750;49.002;9.204;2022-07-24T13:21:46;99453.41;;;34.71;34.24
29877;BME280;16750;49.002;9.204;2022-07-24T13:24:14;99453.69;;;34.65;34.14
29877;BME280;16750;49.002;9.204;2022-07-24T13:26:41;99442.41;;;34.54;35.59
29877;BME280;16750;49.002;9.204;2022-07-24T13:29:07;99430.66;;;34.34;34.42
29877;BME280;16750;49.002;9.204;2022-07-24T13:31:33;99441.97;;;34.24;34.11